Snake River, Canada
Current Conditions -  °F | °C
As of 4:00 AM on Saturday 25 Oct 2014 (Local Time) from CYYE Reporting Station
Few Clouds Few Clouds  
Wind Chill: 17°   Ceiling: Unl
Heat Index: 23°   Visibility: 15mi
Dew Point: 21°   Wind: 5mph
Humidity: 93%   Direction: 180°S
Pressure: 29.91"   Gusts: NA
Location:  59.04°N, 122.45°W
Report Text: CYYE 251000Z 18004KT 140V210 15SM FEW080 M05/M06 A2991 RMK AC1 SLP153
Loading
Personal Weather Stations






























Interactive Weather Map
Tropical Storm Tracking
New forecast layout! Learn more

10-Day Weather Forecast

Advertisements
Track Severe Weather on mobile